Time;durP1;ratioP1;P1;durP2;ratioP2;P2;SDS_P1;SDS_P2;PMS_P1;PMS_P2;Temp;Humidity;BMP_temperature;BMP_pressure;BME280_temperature;BME280_humidity;BME280_pressure;Samples;Min_cycle;Max_cycle;Signal;HPM_P1;HPM_P2
2022/12/14 00:02:05;;;;;;;65.25;38.05;;;-7.20;99.90;;;;;;6165662;23;20181;-83
2022/12/14 00:04:34;;;;;;;81.07;41.17;;;-7.20;99.90;;;;;;6169436;23;20199;-82
2022/12/14 00:07:08;;;;;;;69.95;39.97;;;-7.20;99.90;;;;;;6172558;23;20169;-83
2022/12/14 00:09:39;;;;;;;65.88;38.35;;;-7.20;99.90;;;;;;6170216;23;20196;-86
2022/12/14 00:12:08;;;;;;;85.25;39.38;;;-7.40;99.90;;;;;;6168144;23;20220;-83
2022/12/14 00:14:36;;;;;;;75.38;36.88;;;-7.40;99.90;;;;;;6167951;23;20189;-85
2022/12/14 00:17:07;;;;;;;73.60;35.38;;;-7.60;99.90;;;;;;6166191;23;20224;-86
2022/12/14 00:19:39;;;;;;;70.30;37.88;;;-7.60;99.90;;;;;;6141565;23;20161;-86
2022/12/14 00:22:07;;;;;;;81.32;38.63;;;-7.40;99.90;;;;;;6115244;23;20195;-86
2022/12/14 00:24:34;;;;;;;64.60;35.20;;;-7.30;99.90;;;;;;6166688;23;20255;-85
2022/12/14 00:27:03;;;;;;;72.90;36.75;;;-7.30;99.90;;;;;;6167302;23;20242;-85
2022/12/14 00:29:30;;;;;;;73.28;34.40;;;-7.50;99.90;;;;;;6142073;23;20224;-84
2022/12/14 00:32:04;;;;;;;77.40;38.25;;;-7.70;99.90;;;;;;6166469;23;20176;-85
2022/12/14 00:34:37;;;;;;;68.00;36.90;;;-7.20;99.90;;;;;;6163153;23;20181;-84
2022/12/14 00:37:07;;;;;;;79.22;36.53;;;-7.60;99.90;;;;;;6166495;23;20373;-86
2022/12/14 00:39:38;;;;;;;68.68;36.60;;;-7.60;99.90;;;;;;6165152;23;20369;-83
2022/12/14 00:42:07;;;;;;;77.72;40.30;;;-7.60;99.90;;;;;;6167350;23;20224;-84
2022/12/14 00:44:34;;;;;;;79.72;42.85;;;-7.70;99.90;;;;;;6163136;23;20200;-86
2022/12/14 00:47:01;;;;;;;62.80;33.80;;;-7.70;99.90;;;;;;6164164;23;20421;-85
2022/12/14 00:49:29;;;;;;;66.72;37.63;;;-7.70;99.90;;;;;;6162231;23;20197;-85
2022/12/14 00:51:56;;;;;;;67.18;37.80;;;-7.80;99.90;;;;;;6161726;23;20184;-86
2022/12/14 00:54:23;;;;;;;63.67;36.03;;;-7.80;99.90;;;;;;6162926;23;20252;-87
2022/12/14 00:56:51;;;;;;;84.85;40.95;;;-7.90;99.90;;;;;;6166780;23;20205;-83
2022/12/14 00:59:21;;;;;;;67.20;38.83;;;-8.00;99.90;;;;;;6165864;23;20193;-83
2022/12/14 01:01:53;;;;;;;72.05;36.75;;;-7.90;99.90;;;;;;6165060;23;20173;-85
2022/12/14 01:04:28;;;;;;;69.07;36.35;;;-7.90;99.90;;;;;;6164778;23;20610;-88
2022/12/14 01:06:59;;;;;;;71.28;37.33;;;-7.80;99.90;;;;;;6167692;23;20200;-86
2022/12/14 01:09:26;;;;;;;60.72;34.92;;;-7.70;99.90;;;;;;6168646;23;20401;-84
2022/12/14 01:12:22;;;;;;;69.38;35.85;;;-7.80;99.90;;;;;;6170307;23;20177;-84
2022/12/14 01:14:49;;;;;;;61.50;34.88;;;-7.90;99.90;;;;;;6171379;23;20497;-85
2022/12/14 01:17:19;;;;;;;65.78;36.75;;;-8.10;99.90;;;;;;6172960;23;20204;-86
2022/12/14 01:19:46;;;;;;;70.90;37.75;;;-8.10;99.90;;;;;;6169125;23;20310;-84
2022/12/14 01:22:15;;;;;;;73.35;36.17;;;-8.10;99.90;;;;;;6170193;23;20177;-85
2022/12/14 01:24:43;;;;;;;79.53;37.42;;;-8.10;99.90;;;;;;6165197;23;20196;-84
2022/12/14 01:27:13;;;;;;;66.70;36.80;;;-8.00;99.90;;;;;;6163761;23;20228;-86
2022/12/14 01:29:40;;;;;;;62.30;33.65;;;-8.00;99.90;;;;;;6136884;23;20227;-84
2022/12/14 01:32:09;;;;;;;73.05;35.00;;;-8.00;99.90;;;;;;6163610;23;20231;-88
2022/12/14 01:34:40;;;;;;;67.07;32.92;;;-8.10;99.90;;;;;;6162558;23;20181;-83
2022/12/14 01:37:08;;;;;;;64.93;36.10;;;-8.10;99.90;;;;;;6162632;23;20235;-86
2022/12/14 01:39:35;;;;;;;60.15;35.88;;;-8.20;99.90;;;;;;6163664;23;20181;-88
2022/12/14 01:42:02;;;;;;;66.35;34.85;;;-8.20;99.90;;;;;;6179665;23;20229;-89
2022/12/14 01:44:29;;;;;;;60.25;31.35;;;-8.30;99.90;;;;;;6179096;23;20256;-86
2022/12/14 01:47:23;;;;;;;65.63;35.20;;;-8.20;99.90;;;;;;6181651;23;20187;-87
2022/12/14 01:50:03;;;;;;;80.13;37.22;;;-8.20;99.90;;;;;;6154229;23;20269;-86
2022/12/14 01:52:43;;;;;;;73.80;37.67;;;-8.30;99.90;;;;;;6132725;23;20228;-89
2022/12/14 01:55:26;;;;;;;65.85;33.45;;;-8.30;99.90;;;;;;6134853;23;20174;-86
2022/12/14 01:58:17;;;;;;;74.18;35.53;;;-8.30;99.90;;;;;;6100149;23;20178;-87
2022/12/14 02:00:46;;;;;;;63.75;33.95;;;-8.40;99.90;;;;;;6134239;23;20783;-88
2022/12/14 02:03:30;;;;;;;61.40;34.30;;;-8.30;99.90;;;;;;6108818;23;20181;-87
2022/12/14 02:06:27;;;;;;;68.68;36.65;;;-8.40;99.90;;;;;;6136082;23;20212;-87
2022/12/14 02:08:56;;;;;;;60.17;35.03;;;-8.40;99.90;;;;;;6109421;23;20712;-87
2022/12/14 02:11:58;;;;;;;75.13;36.42;;;-8.60;99.90;;;;;;6109963;23;20185;-87
2022/12/14 02:14:26;;;;;;;67.03;33.78;;;-8.40;99.90;;;;;;6076718;23;20470;-86
2022/12/14 02:16:54;;;;;;;60.53;35.65;;;-8.40;99.90;;;;;;6085107;23;20206;-83
2022/12/14 02:19:21;;;;;;;69.53;36.80;;;-8.50;99.90;;;;;;6133755;23;20186;-85
2022/12/14 02:22:06;;;;;;;74.00;36.05;;;-8.60;99.90;;;;;;6133702;23;20178;-85
2022/12/14 02:24:53;;;;;;;61.88;31.92;;;-8.50;99.90;;;;;;6110039;23;20193;-84
2022/12/14 02:27:29;;;;;;;61.95;33.95;;;-8.60;99.90;;;;;;6134098;23;20169;-87
2022/12/14 02:30:07;;;;;;;69.72;35.13;;;-8.50;99.90;;;;;;6134415;23;20201;-86
2022/12/14 02:32:41;;;;;;;73.22;35.38;;;-8.50;99.90;;;;;;6135292;23;20186;-90
2022/12/14 02:35:38;;;;;;;60.03;32.65;;;-8.50;99.90;;;;;;6139961;23;20177;-87
2022/12/14 02:38:32;;;;;;;64.72;34.20;;;-8.40;99.90;;;;;;6135332;23;20193;-89
2022/12/14 02:41:37;;;;;;;56.33;30.42;;;-8.30;99.90;;;;;;6134486;23;20162;-88
2022/12/14 02:44:37;;;;;;;62.33;33.85;;;-8.40;99.90;;;;;;6134993;23;20255;-87
2022/12/14 02:47:31;;;;;;;68.70;36.13;;;-8.50;99.90;;;;;;6133281;23;20217;-87
2022/12/14 02:50:18;;;;;;;71.65;33.33;;;-8.50;99.90;;;;;;6135846;23;20185;-87
2022/12/14 02:53:12;;;;;;;66.30;35.25;;;-8.50;99.90;;;;;;6109527;23;20236;-88
2022/12/14 02:55:47;;;;;;;50.95;29.02;;;-8.60;99.90;;;;;;6132224;23;20192;-87
2022/12/14 02:58:24;;;;;;;64.15;33.95;;;-8.50;99.90;;;;;;6132584;23;20185;-84
2022/12/14 03:00:54;;;;;;;60.67;34.50;;;-8.50;99.90;;;;;;6132131;23;20186;-86
2022/12/14 03:03:23;;;;;;;75.80;35.97;;;-8.50;99.90;;;;;;6133492;23;20181;-86
2022/12/14 03:05:55;;;;;;;72.13;38.88;;;-8.50;99.90;;;;;;6108766;23;20209;-86
2022/12/14 03:08:25;;;;;;;67.55;36.25;;;-8.30;99.90;;;;;;6149451;23;20177;-86
2022/12/14 03:10:56;;;;;;;73.70;37.58;;;-8.30;99.90;;;;;;6153138;23;20178;-86
2022/12/14 03:13:51;;;;;;;86.65;41.95;;;-8.30;99.90;;;;;;6148050;23;20162;-87
2022/12/14 03:16:22;;;;;;;61.53;36.50;;;-8.30;99.90;;;;;;6137276;23;20391;-82
2022/12/14 03:19:08;;;;;;;77.18;39.75;;;-8.20;99.90;;;;;;6135528;23;20196;-86
2022/12/14 03:21:53;;;;;;;69.13;36.85;;;-8.20;99.90;;;;;;6108763;23;20189;-87
2022/12/14 03:24:28;;;;;;;77.15;40.85;;;-8.30;99.90;;;;;;6109084;23;20201;-86
2022/12/14 03:27:03;;;;;;;76.70;39.05;;;-8.30;99.90;;;;;;6117858;23;20193;-87
2022/12/14 03:29:43;;;;;;;71.68;42.42;;;-8.30;99.90;;;;;;6141463;23;20229;-85
2022/12/14 03:32:17;;;;;;;74.32;40.65;;;-8.30;99.90;;;;;;6133864;23;20181;-85
2022/12/14 03:34:50;;;;;;;72.00;40.90;;;-8.40;99.90;;;;;;6141051;23;20193;-87
2022/12/14 03:37:31;;;;;;;82.95;42.53;;;-8.40;99.90;;;;;;6134497;23;20395;-86
2022/12/14 03:39:59;;;;;;;88.05;41.88;;;-8.40;99.90;;;;;;6133198;23;20170;-83
2022/12/14 03:42:38;;;;;;;88.95;45.45;;;-8.40;99.90;;;;;;6107119;23;20194;-84
2022/12/14 03:45:38;;;;;;;75.00;42.35;;;-8.30;99.90;;;;;;6102834;23;20205;-86
2022/12/14 03:48:22;;;;;;;93.57;49.53;;;-8.40;99.90;;;;;;6110600;23;20245;-84
2022/12/14 03:51:14;;;;;;;83.60;46.85;;;-8.40;99.90;;;;;;6132511;23;20394;-87
2022/12/14 03:54:12;;;;;;;83.55;45.80;;;-8.40;99.90;;;;;;6107267;23;20217;-87
2022/12/14 03:56:46;;;;;;;89.53;48.53;;;-8.50;99.90;;;;;;6132985;23;20169;-87
2022/12/14 03:59:35;;;;;;;89.53;46.75;;;-8.50;99.90;;;;;;6132457;23;20201;-86
2022/12/14 04:02:20;;;;;;;73.72;42.50;;;-8.50;99.90;;;;;;6136442;23;20170;-88
2022/12/14 04:05:06;;;;;;;105.60;52.03;;;-8.60;99.90;;;;;;6147764;23;20186;-86
2022/12/14 04:08:05;;;;;;;96.25;50.13;;;-8.50;99.90;;;;;;6137920;23;20165;-84
2022/12/14 04:19:58;;;;;;;94.15;48.47;;;-8.50;99.90;;;;;;6131819;23;20217;-83
2022/12/14 04:22:33;;;;;;;91.88;48.53;;;-8.60;99.90;;;;;;6131774;23;20177;-85
2022/12/14 04:31:15;;;;;;;87.93;46.50;;;-8.60;99.90;;;;;;6132536;23;20177;-84
2022/12/14 04:33:52;;;;;;;88.65;45.50;;;-8.60;99.90;;;;;;6107420;23;20173;-86
2022/12/14 04:36:45;;;;;;;110.90;52.13;;;-8.70;99.90;;;;;;6108257;23;20182;-86
2022/12/14 04:39:26;;;;;;;93.90;50.53;;;-8.70;99.90;;;;;;6137654;23;20162;-82
2022/12/14 04:41:57;;;;;;;92.88;47.78;;;-8.70;99.90;;;;;;6137257;23;20217;-84
2022/12/14 04:44:36;;;;;;;112.93;54.25;;;-8.70;99.90;;;;;;6113543;23;20212;-83
2022/12/14 04:47:08;;;;;;;120.15;55.00;;;-8.70;99.90;;;;;;6135495;23;20173;-85
2022/12/14 04:49:45;;;;;;;109.10;55.55;;;-8.80;99.90;;;;;;6135171;23;20232;-87
2022/12/14 04:52:36;;;;;;;121.20;55.47;;;-8.80;99.90;;;;;;6135553;23;20150;-86
2022/12/14 04:55:35;;;;;;;106.20;54.97;;;-8.80;99.90;;;;;;6133736;23;20174;-84
2022/12/14 04:58:11;;;;;;;114.43;60.28;;;-8.70;99.90;;;;;;6091603;23;20229;-85
2022/12/14 05:00:57;;;;;;;100.53;52.95;;;-8.60;99.90;;;;;;6131476;23;20179;-84
2022/12/14 05:03:42;;;;;;;95.90;50.25;;;-8.60;99.90;;;;;;6117232;23;20209;-87
2022/12/14 05:06:25;;;;;;;112.13;56.70;;;-8.60;99.90;;;;;;6127290;23;20181;-86
2022/12/14 05:09:15;;;;;;;104.85;51.45;;;-8.60;99.90;;;;;;6144917;23;20174;-82
2022/12/14 05:11:51;;;;;;;102.25;50.83;;;-8.60;99.90;;;;;;6133630;23;20197;-84
2022/12/14 05:14:27;;;;;;;103.05;52.67;;;-8.60;99.90;;;;;;6107975;23;20628;-88
2022/12/14 05:16:56;;;;;;;96.78;49.03;;;-8.60;99.90;;;;;;6134771;23;20176;-87
2022/12/14 05:19:34;;;;;;;111.88;54.85;;;-8.60;99.90;;;;;;6131717;23;20227;-84
2022/12/14 05:22:06;;;;;;;99.63;53.67;;;-8.60;99.90;;;;;;6132899;23;20412;-85
2022/12/14 05:24:33;;;;;;;97.40;52.70;;;-8.60;99.90;;;;;;6133241;23;20397;-82
2022/12/14 05:27:00;;;;;;;99.35;53.65;;;-8.50;99.90;;;;;;6133183;23;20378;-85
2022/12/14 05:29:27;;;;;;;105.07;53.53;;;-8.40;99.90;;;;;;6134021;23;20265;-84
2022/12/14 05:31:55;;;;;;;96.97;52.45;;;-8.50;99.90;;;;;;6132934;23;20185;-83
2022/12/14 05:34:22;;;;;;;109.20;56.20;;;-8.50;99.90;;;;;;6107714;23;20248;-86
2022/12/14 05:36:49;;;;;;;115.43;57.88;;;-8.60;99.90;;;;;;6133214;23;20229;-87
2022/12/14 05:39:17;;;;;;;107.70;53.45;;;-8.60;99.90;;;;;;6108258;23;20186;-86
2022/12/14 05:41:44;;;;;;;103.03;55.70;;;-8.60;99.90;;;;;;6133797;23;20236;-85
2022/12/14 05:44:11;;;;;;;110.97;53.83;;;-8.60;99.90;;;;;;6138376;23;20474;-84
2022/12/14 05:46:40;;;;;;;104.82;54.58;;;-8.60;99.90;;;;;;6140448;23;20209;-86
2022/12/14 05:49:10;;;;;;;115.15;51.90;;;-8.60;99.90;;;;;;6151173;23;20187;-86
2022/12/14 05:51:41;;;;;;;107.30;54.35;;;-8.60;99.90;;;;;;6113404;23;20391;-85
2022/12/14 05:54:10;;;;;;;110.82;54.53;;;-8.60;99.90;;;;;;6137105;23;20740;-86
2022/12/14 05:56:39;;;;;;;101.72;53.28;;;-8.50;99.90;;;;;;6112650;23;20192;-86
2022/12/14 05:59:06;;;;;;;115.78;56.58;;;-8.50;99.90;;;;;;6114042;23;20186;-87
2022/12/14 06:01:35;;;;;;;112.68;56.85;;;-8.50;99.90;;;;;;6115121;23;20186;-87
2022/12/14 06:04:02;;;;;;;115.28;59.13;;;-8.60;99.90;;;;;;6116037;23;20246;-88
2022/12/14 06:06:32;;;;;;;113.10;57.92;;;-8.70;99.90;;;;;;6093969;23;20193;-85
2022/12/14 06:08:59;;;;;;;117.55;58.45;;;-8.70;99.90;;;;;;6115283;23;20236;-84
2022/12/14 06:11:29;;;;;;;106.03;54.35;;;-8.60;99.90;;;;;;6138633;23;20196;-83
2022/12/14 06:13:57;;;;;;;102.68;56.42;;;-8.70;99.90;;;;;;6138548;23;20189;-84
2022/12/14 06:16:25;;;;;;;117.50;56.15;;;-8.80;99.90;;;;;;6108789;23;20181;-85
2022/12/14 06:18:55;;;;;;;121.68;63.10;;;-8.80;99.90;;;;;;6134957;23;20253;-85
2022/12/14 06:21:25;;;;;;;106.50;56.65;;;-8.70;99.90;;;;;;6139062;23;20185;-86
2022/12/14 06:23:55;;;;;;;109.47;55.40;;;-8.70;99.90;;;;;;6112469;23;20174;-85
2022/12/14 06:26:22;;;;;;;139.98;63.20;;;-8.70;99.90;;;;;;6135044;23;20525;-85
2022/12/14 06:28:50;;;;;;;142.30;65.13;;;-8.70;99.90;;;;;;6139557;23;20184;-88
2022/12/14 06:31:43;;;;;;;97.35;53.88;;;-8.70;99.90;;;;;;6141082;23;20233;-87
2022/12/14 06:34:17;;;;;;;122.70;59.80;;;-8.70;99.90;;;;;;6118086;23;20213;-86
2022/12/14 06:36:53;;;;;;;101.20;53.28;;;-8.80;99.90;;;;;;6139890;23;20169;-83
2022/12/14 06:39:23;;;;;;;115.10;56.45;;;-8.80;99.90;;;;;;6114597;23;20502;-87
2022/12/14 06:41:53;;;;;;;124.13;61.00;;;-8.80;99.90;;;;;;6139350;23;20170;-86
2022/12/14 06:44:23;;;;;;;130.27;60.53;;;-8.60;99.90;;;;;;6112324;23;20482;-86
2022/12/14 06:46:51;;;;;;;104.50;52.30;;;-8.60;99.90;;;;;;6137748;23;20201;-84
2022/12/14 06:49:23;;;;;;;114.72;58.63;;;-8.60;99.90;;;;;;6117221;23;20201;-89
2022/12/14 06:51:54;;;;;;;114.00;55.85;;;-8.60;99.90;;;;;;6165716;23;20200;-88
2022/12/14 06:54:21;;;;;;;111.90;58.20;;;-8.50;99.90;;;;;;6167630;23;20180;-86
2022/12/14 06:56:49;;;;;;;115.30;55.70;;;-8.60;99.90;;;;;;6143027;23;20191;-86
2022/12/14 06:59:16;;;;;;;125.57;53.83;;;-8.50;99.90;;;;;;6167871;23;20245;-85
2022/12/14 07:01:45;;;;;;;106.28;58.42;;;-8.50;99.90;;;;;;6145001;23;20181;-83
2022/12/14 07:04:17;;;;;;;111.97;57.30;;;-8.60;99.90;;;;;;6169217;23;20166;-89
2022/12/14 07:06:52;;;;;;;111.03;56.67;;;-8.50;99.90;;;;;;6167439;23;20309;-86
2022/12/14 07:09:18;;;;;;;116.53;55.78;;;-8.50;99.90;;;;;;6167783;23;20538;-86
2022/12/14 07:11:49;;;;;;;115.50;60.65;;;-8.50;99.90;;;;;;6166639;23;20189;-85
2022/12/14 07:14:17;;;;;;;96.00;49.28;;;-8.50;99.90;;;;;;6166202;23;20313;-86
2022/12/14 07:16:43;;;;;;;124.43;59.22;;;-8.40;99.90;;;;;;6168061;23;20188;-88
2022/12/14 07:19:20;;;;;;;117.88;57.35;;;-8.40;99.90;;;;;;6164914;23;20164;-87
2022/12/14 07:21:48;;;;;;;129.63;59.13;;;-8.20;99.90;;;;;;6165988;23;20184;-85
2022/12/14 07:24:16;;;;;;;101.60;54.90;;;-8.20;99.90;;;;;;6162327;23;20577;-85
2022/12/14 07:26:43;;;;;;;111.07;54.03;;;-8.10;99.90;;;;;;6163680;23;20209;-85
2022/12/14 07:29:13;;;;;;;98.68;54.63;;;-8.10;99.90;;;;;;6164123;23;20357;-87
2022/12/14 07:31:41;;;;;;;117.22;57.53;;;-8.00;99.90;;;;;;6166680;23;20181;-87
2022/12/14 07:34:12;;;;;;;114.32;56.38;;;-7.90;99.90;;;;;;6172036;23;20177;-85
2022/12/14 07:36:39;;;;;;;113.72;60.45;;;-7.90;99.90;;;;;;6175017;23;20173;-84
2022/12/14 07:39:12;;;;;;;103.63;55.05;;;-7.90;99.90;;;;;;6131614;23;20217;-86
2022/12/14 07:41:39;;;;;;;112.60;58.88;;;-7.80;99.90;;;;;;6135819;23;20202;-85
2022/12/14 07:44:10;;;;;;;104.18;55.78;;;-7.80;99.90;;;;;;6134443;23;20267;-86
2022/12/14 07:46:37;;;;;;;96.72;54.63;;;-7.80;99.90;;;;;;6131730;23;20206;-87
2022/12/14 07:49:06;;;;;;;105.90;57.53;;;-7.80;99.90;;;;;;6131524;23;20400;-83
2022/12/14 07:51:35;;;;;;;114.60;57.95;;;-7.80;99.90;;;;;;6146220;23;20482;-85
2022/12/14 07:54:05;;;;;;;94.80;53.28;;;-7.80;99.90;;;;;;6162173;23;20181;-87
2022/12/14 07:56:35;;;;;;;105.25;55.35;;;-7.70;99.90;;;;;;6161425;23;20188;-85
2022/12/14 07:59:07;;;;;;;115.55;56.70;;;-7.80;99.90;;;;;;6162547;23;20173;-84
2022/12/14 08:01:39;;;;;;;114.78;59.88;;;-7.80;99.90;;;;;;6135951;23;20229;-87
2022/12/14 08:04:15;;;;;;;99.50;53.53;;;-7.80;99.90;;;;;;6163723;23;20217;-87
2022/12/14 08:06:51;;;;;;;97.15;51.40;;;-7.80;99.90;;;;;;6161889;23;20247;-86
2022/12/14 08:09:19;;;;;;;107.68;58.47;;;-7.60;99.90;;;;;;6160303;23;20176;-86
2022/12/14 08:11:52;;;;;;;98.60;51.85;;;-7.70;99.90;;;;;;6165080;23;20236;-88
2022/12/14 08:14:24;;;;;;;106.38;52.53;;;-7.70;99.90;;;;;;6167743;23;20157;-84
2022/12/14 08:17:11;;;;;;;92.38;52.35;;;-7.60;99.90;;;;;;6165124;23;20216;-85
2022/12/14 08:19:47;;;;;;;98.13;52.63;;;-7.60;99.90;;;;;;6139835;23;20543;-86
2022/12/14 08:22:14;;;;;;;96.45;54.47;;;-7.50;99.90;;;;;;6164168;23;20165;-86
2022/12/14 08:24:43;;;;;;;90.95;47.05;;;-7.60;99.90;;;;;;6164580;23;20378;-84
2022/12/14 08:27:15;;;;;;;93.22;53.70;;;-7.60;99.90;;;;;;6169149;23;20185;-84
2022/12/14 08:29:48;;;;;;;93.43;53.00;;;-7.30;99.90;;;;;;6176120;23;20169;-87
2022/12/14 08:32:15;;;;;;;107.22;57.10;;;-7.30;99.90;;;;;;6129810;23;20168;-90
2022/12/14 08:34:47;;;;;;;93.65;53.40;;;-7.20;99.90;;;;;;6173682;23;20173;-88
2022/12/14 08:37:14;;;;;;;99.30;54.92;;;-7.30;99.90;;;;;;6172925;23;20177;-88
2022/12/14 08:39:42;;;;;;;102.78;56.70;;;-7.20;99.90;;;;;;6162069;23;20200;-87
2022/12/14 08:42:15;;;;;;;92.88;53.55;;;-7.10;99.90;;;;;;6136911;23;20336;-87
2022/12/14 08:44:44;;;;;;;100.28;57.65;;;-7.10;99.90;;;;;;6163263;23;20177;-85
2022/12/14 08:47:15;;;;;;;101.18;56.97;;;-7.10;99.90;;;;;;6162039;23;20464;-87
2022/12/14 08:49:45;;;;;;;110.93;57.78;;;-6.90;99.90;;;;;;6165028;23;20177;-87
2022/12/14 08:52:12;;;;;;;111.70;56.00;;;-6.90;99.90;;;;;;6161545;23;20181;-86
2022/12/14 08:54:41;;;;;;;100.80;57.25;;;-6.80;99.90;;;;;;6161259;23;20185;-85
2022/12/14 08:57:10;;;;;;;96.85;52.15;;;-6.70;99.90;;;;;;6135206;23;20252;-85
2022/12/14 08:59:38;;;;;;;104.30;59.75;;;-6.70;99.90;;;;;;6137443;23;20364;-84
2022/12/14 09:02:31;;;;;;;93.68;52.33;;;-6.60;99.90;;;;;;6162075;23;20235;-86
2022/12/14 09:05:02;;;;;;;92.43;53.92;;;-6.50;99.90;;;;;;6135283;23;20473;-87
2022/12/14 09:07:30;;;;;;;98.43;53.45;;;-6.40;99.90;;;;;;6135291;23;20219;-85
2022/12/14 09:09:58;;;;;;;107.07;57.90;;;-6.30;99.90;;;;;;6136613;23;20184;-88
2022/12/14 09:12:27;;;;;;;99.53;55.13;;;-6.10;99.90;;;;;;6163929;23;20200;-84
2022/12/14 09:14:54;;;;;;;93.47;53.72;;;-5.90;99.90;;;;;;6140456;23;20208;-85
2022/12/14 09:17:21;;;;;;;109.05;57.90;;;-5.40;99.90;;;;;;6117393;23;20227;-85
2022/12/14 09:20:00;;;;;;;92.60;53.53;;;-5.40;99.90;;;;;;6166351;23;20176;-85
2022/12/14 09:22:34;;;;;;;102.78;55.90;;;-5.50;99.90;;;;;;6140569;23;20165;-83
2022/12/14 09:25:04;;;;;;;92.68;53.78;;;-5.50;99.90;;;;;;6167197;23;20184;-85
2022/12/14 09:27:34;;;;;;;107.43;54.70;;;-5.30;99.90;;;;;;6165634;23;20789;-86
2022/12/14 09:30:07;;;;;;;97.50;52.55;;;-5.10;99.90;;;;;;6165988;23;20177;-86
2022/12/14 09:32:40;;;;;;;88.22;48.20;;;-5.10;99.90;;;;;;6168561;23;20555;-82
2022/12/14 09:35:09;;;;;;;93.25;51.00;;;-5.10;99.90;;;;;;6168062;23;20165;-84
2022/12/14 09:37:37;;;;;;;83.53;45.50;;;-5.20;99.90;;;;;;6141429;23;20185;-84
2022/12/14 09:40:09;;;;;;;78.57;47.47;;;-5.20;99.90;;;;;;6140857;23;20192;-86
2022/12/14 09:42:54;;;;;;;77.80;45.35;;;-5.20;99.90;;;;;;6162852;23;20177;-85
2022/12/14 09:45:32;;;;;;;93.38;50.00;;;-5.00;99.90;;;;;;6164296;23;20224;-84
2022/12/14 09:48:20;;;;;;;90.65;46.13;;;-4.60;99.90;;;;;;6118065;23;20220;-86
2022/12/14 09:50:51;;;;;;;90.32;48.53;;;-4.50;99.90;;;;;;6163258;23;20184;-82
2022/12/14 09:53:20;;;;;;;86.70;47.88;;;-4.50;99.90;;;;;;6163862;23;20445;-88
2022/12/14 09:55:52;;;;;;;89.15;55.80;;;-4.70;99.90;;;;;;6162991;23;20177;-84
2022/12/14 09:58:28;;;;;;;83.82;46.00;;;-4.60;99.90;;;;;;6136044;23;20228;-83
2022/12/14 10:01:10;;;;;;;88.45;50.38;;;-4.80;99.90;;;;;;6163659;23;20177;-84
2022/12/14 10:04:05;;;;;;;89.00;49.38;;;-4.70;99.90;;;;;;6163957;23;20161;-85
2022/12/14 10:07:15;;;;;;;96.38;50.00;;;-4.50;99.90;;;;;;6138922;23;20201;-83
2022/12/14 10:10:12;;;;;;;90.97;48.33;;;-4.40;99.90;;;;;;6158076;23;20181;-83
2022/12/14 10:13:13;;;;;;;114.32;58.85;;;-4.30;99.90;;;;;;6165103;23;20161;-86
2022/12/14 10:15:52;;;;;;;88.93;48.45;;;-4.20;99.90;;;;;;6163715;23;20232;-82
2022/12/14 10:18:30;;;;;;;106.25;56.33;;;-4.20;99.90;;;;;;6163276;23;20193;-84
2022/12/14 10:21:24;;;;;;;91.20;51.80;;;-4.30;99.90;;;;;;6141227;23;20173;-84
2022/12/14 10:23:57;;;;;;;98.38;51.83;;;-4.20;99.90;;;;;;6137916;23;20524;-82
2022/12/14 10:26:37;;;;;;;91.45;51.05;;;-4.30;99.90;;;;;;6163551;23;20205;-87
2022/12/14 10:29:09;;;;;;;93.05;51.65;;;-4.10;99.90;;;;;;6164102;23;20381;-82
2022/12/14 10:31:48;;;;;;;89.35;52.10;;;-3.90;99.90;;;;;;6165089;23;20223;-88
2022/12/14 10:34:18;;;;;;;83.90;52.38;;;-3.50;99.90;;;;;;6165079;23;20385;-85
2022/12/14 10:37:23;;;;;;;108.00;55.47;;;-3.60;99.90;;;;;;6163920;23;20208;-87
2022/12/14 10:40:09;;;;;;;105.40;57.10;;;-3.70;99.90;;;;;;6162729;23;20161;-82
2022/12/14 10:43:29;;;;;;;91.18;51.50;;;-3.50;99.90;;;;;;6140477;23;20190;-84
2022/12/14 10:46:13;;;;;;;101.38;55.55;;;-3.30;99.90;;;;;;6163099;23;20254;-83
2022/12/14 10:49:00;;;;;;;94.30;55.70;;;-3.50;99.90;;;;;;6162225;23;20172;-86
2022/12/14 10:51:41;;;;;;;95.03;58.58;;;-3.60;99.90;;;;;;6163088;23;20198;-83
2022/12/14 10:54:27;;;;;;;122.70;61.17;;;-3.50;99.90;;;;;;6142482;23;20208;-83
2022/12/14 10:56:56;;;;;;;89.45;54.10;;;-3.40;99.90;;;;;;6165369;23;20520;-88
2022/12/14 10:59:37;;;;;;;85.30;53.70;;;-3.30;99.90;;;;;;6164071;23;20369;-82
2022/12/14 11:02:28;;;;;;;87.20;52.92;;;-3.30;99.90;;;;;;6165748;23;20220;-82
2022/12/14 11:05:09;;;;;;;99.32;56.63;;;-3.30;99.90;;;;;;6165469;23;20474;-84
2022/12/14 11:07:44;;;;;;;104.97;56.97;;;-3.30;99.90;;;;;;6164575;23;20390;-85
2022/12/14 11:10:25;;;;;;;89.70;55.95;;;-3.30;99.90;;;;;;6162897;23;20208;-84
2022/12/14 11:13:19;;;;;;;96.63;52.65;;;-3.40;99.90;;;;;;6145608;23;20173;-90
2022/12/14 11:15:48;;;;;;;91.50;51.42;;;-3.40;99.90;;;;;;6176287;23;20243;-85
2022/12/14 11:18:15;;;;;;;93.85;51.35;;;-3.60;99.90;;;;;;6171042;23;20185;-86
2022/12/14 11:21:04;;;;;;;79.55;49.05;;;-3.60;99.90;;;;;;6142179;23;20675;-83
2022/12/14 11:23:40;;;;;;;99.93;52.88;;;-3.60;99.90;;;;;;6140630;23;20469;-81
2022/12/14 11:26:22;;;;;;;82.45;47.58;;;-3.70;99.90;;;;;;6140581;23;20204;-84
2022/12/14 11:28:55;;;;;;;90.28;49.67;;;-3.60;99.90;;;;;;6164224;23;20204;-84
2022/12/14 11:31:34;;;;;;;89.47;53.47;;;-3.70;99.90;;;;;;6139048;23;20214;-82
2022/12/14 11:34:03;;;;;;;81.50;48.13;;;-3.70;99.90;;;;;;6164389;23;20173;-85
2022/12/14 11:36:48;;;;;;;93.10;51.40;;;-3.60;99.90;;;;;;6164405;23;20176;-86
2022/12/14 11:39:25;;;;;;;90.28;51.05;;;-3.50;99.90;;;;;;6165361;23;20170;-87
2022/12/14 11:42:01;;;;;;;78.47;46.58;;;-3.40;99.90;;;;;;6138949;23;20472;-83
2022/12/14 11:44:35;;;;;;;86.57;47.47;;;-3.40;99.90;;;;;;6164647;23;20176;-88
2022/12/14 11:47:14;;;;;;;81.82;48.92;;;-3.40;99.90;;;;;;6164347;23;20205;-84
2022/12/14 11:49:49;;;;;;;85.70;47.35;;;-3.40;99.90;;;;;;6164830;23;20469;-85
2022/12/14 11:52:36;;;;;;;95.50;47.67;;;-3.50;99.90;;;;;;6163657;23;20185;-86
2022/12/14 11:55:16;;;;;;;76.60;45.63;;;-3.30;99.90;;;;;;6151531;23;20179;-88
2022/12/14 11:57:58;;;;;;;72.50;44.88;;;-3.20;99.90;;;;;;6164059;23;20185;-83
2022/12/14 12:00:37;;;;;;;84.43;45.85;;;-3.30;99.90;;;;;;6151805;23;20165;-88
2022/12/14 12:03:24;;;;;;;76.35;43.67;;;-3.30;99.90;;;;;;6178623;23;20161;-91
2022/12/14 12:06:01;;;;;;;76.35;41.97;;;-3.10;99.90;;;;;;6176531;23;20213;-84
2022/12/14 12:08:31;;;;;;;74.10;44.90;;;-3.00;99.90;;;;;;6175157;23;20180;-82
2022/12/14 12:11:02;;;;;;;71.88;43.42;;;-3.00;99.90;;;;;;6176777;23;20180;-84
2022/12/14 12:13:38;;;;;;;82.57;43.67;;;-3.00;99.90;;;;;;6176402;23;20287;-84
2022/12/14 12:16:13;;;;;;;85.15;46.17;;;-3.00;99.90;;;;;;6169092;23;20527;-84
2022/12/14 12:19:08;;;;;;;70.18;41.33;;;-2.80;99.90;;;;;;6165043;23;20243;-83
2022/12/14 12:21:43;;;;;;;68.30;42.72;;;-2.50;99.90;;;;;;6163445;23;20288;-86
2022/12/14 12:24:47;;;;;;;70.35;40.42;;;-2.30;99.90;;;;;;6163713;23;20504;-87
2022/12/14 12:27:35;;;;;;;71.90;41.97;;;-2.30;99.90;;;;;;6157342;23;20203;-84
2022/12/14 12:30:40;;;;;;;62.53;42.05;;;-2.30;99.90;;;;;;6143109;23;20265;-82
2022/12/14 12:33:26;;;;;;;59.53;39.05;;;-2.40;99.90;;;;;;6046751;23;20180;-83
2022/12/14 12:35:55;;;;;;;68.25;36.92;;;-2.40;99.90;;;;;;6134162;23;20181;-82
2022/12/14 12:38:37;;;;;;;66.30;38.30;;;-2.50;99.90;;;;;;6164494;23;20184;-86
2022/12/14 12:41:43;;;;;;;62.65;37.75;;;-2.60;99.90;;;;;;6165401;23;20168;-89
2022/12/14 12:44:44;;;;;;;60.75;35.97;;;-2.40;99.90;;;;;;6166039;23;20307;-85
2022/12/14 12:47:22;;;;;;;66.85;37.38;;;-2.40;99.90;;;;;;6164501;23;20412;-83
2022/12/14 12:50:05;;;;;;;56.45;36.15;;;-2.30;99.90;;;;;;6164907;23;20172;-88
2022/12/14 12:52:59;;;;;;;59.72;38.72;;;-2.30;99.90;;;;;;6164225;23;20276;-88
2022/12/14 12:55:38;;;;;;;51.33;32.50;;;-2.10;99.90;;;;;;6163026;23;20504;-83
2022/12/14 12:58:08;;;;;;;61.10;35.28;;;-2.20;99.90;;;;;;6162473;23;20211;-87
2022/12/14 13:00:39;;;;;;;64.68;37.92;;;-2.20;99.90;;;;;;6164893;23;20196;-84
2022/12/14 13:03:37;;;;;;;55.53;34.47;;;-2.20;99.90;;;;;;6139246;23;20184;-83
2022/12/14 13:06:39;;;;;;;55.58;34.90;;;-2.10;99.90;;;;;;6114929;23;20175;-84
2022/12/14 13:09:22;;;;;;;52.83;34.35;;;-2.10;99.90;;;;;;6101928;23;20184;-86
2022/12/14 13:11:54;;;;;;;58.47;36.35;;;-1.80;99.90;;;;;;6141679;23;20215;-86
2022/12/14 13:14:32;;;;;;;65.03;36.35;;;-1.80;99.90;;;;;;6167460;23;20248;-86
2022/12/14 13:17:03;;;;;;;66.63;35.25;;;-1.80;99.90;;;;;;6138010;23;20484;-85
2022/12/14 13:19:44;;;;;;;49.20;32.45;;;-1.80;99.90;;;;;;6165707;23;20171;-87
2022/12/14 13:22:44;;;;;;;52.65;31.30;;;-1.60;99.90;;;;;;6165141;23;20258;-84
2022/12/14 13:26:00;;;;;;;58.78;35.22;;;-1.60;99.90;;;;;;6163827;23;20187;-86